createdAt,value
2023-05-16T00:01:16.914Z,5.60
2023-05-16T00:04:21.642Z,5.00
2023-05-16T00:07:25.193Z,4.00
2023-05-16T00:10:28.634Z,5.00
2023-05-16T00:13:32.107Z,4.00
2023-05-16T00:16:37.230Z,4.25
2023-05-16T00:19:42.347Z,5.00
2023-05-16T00:22:46.309Z,5.00
2023-05-16T00:25:49.721Z,4.00
2023-05-16T00:28:53.064Z,6.00
2023-05-16T00:31:56.966Z,4.20
2023-05-16T00:35:01.559Z,6.00
2023-05-16T00:38:05.450Z,5.00
2023-05-16T00:41:08.708Z,4.00
2023-05-16T00:44:13.301Z,5.00
2023-05-16T00:47:16.591Z,5.00
2023-05-16T00:50:21.436Z,5.00
2023-05-16T00:53:26.597Z,3.00
2023-05-16T00:56:30.047Z,3.00
2023-05-16T00:59:33.580Z,5.00
2023-05-16T01:02:37.968Z,4.00
2023-05-16T01:05:42.748Z,4.00
2023-05-16T01:08:46.250Z,5.40
2023-05-16T01:11:57.208Z,4.00
2023-05-16T01:15:07.285Z,5.00
2023-05-16T01:18:18.055Z,3.60
2023-05-16T01:21:40.328Z,3.00
2023-05-16T01:24:56.322Z,4.00
2023-05-16T01:28:03.464Z,3.00
2023-05-16T01:31:07.072Z,3.50
2023-05-16T01:34:10.470Z,4.00
2023-05-16T01:37:20.925Z,3.80
2023-05-16T01:40:36.327Z,4.00
2023-05-16T01:43:45.704Z,2.00
2023-05-16T01:46:53.411Z,5.00
2023-05-16T01:50:04.157Z,5.00
2023-05-16T01:53:11.383Z,5.00
2023-05-16T01:56:18.214Z,4.25
2023-05-16T01:59:24.938Z,4.40
2023-05-16T02:02:30.125Z,4.00
2023-05-16T02:05:33.365Z,5.20
2023-05-16T02:08:36.659Z,5.60
2023-05-16T02:11:40.207Z,3.00
2023-05-16T02:14:44.818Z,5.00
2023-05-16T02:17:48.552Z,4.00
2023-05-16T02:20:52.934Z,3.25
2023-05-16T02:23:56.163Z,4.00
2023-05-16T02:26:59.446Z,4.00
2023-05-16T02:30:04.848Z,5.60
2023-05-16T02:33:08.277Z,3.40
2023-05-16T02:36:11.844Z,2.50
2023-05-16T02:39:15.101Z,3.00
2023-05-16T02:42:18.844Z,2.50
2023-05-16T02:45:23.536Z,6.00
2023-05-16T02:48:27.210Z,4.40
2023-05-16T02:51:30.528Z,6.40
2023-05-16T02:54:35.367Z,4.00
2023-05-16T02:57:38.582Z,5.60
2023-05-16T03:00:43.146Z,4.00
2023-05-16T03:03:46.619Z,3.33
2023-05-16T03:06:51.223Z,4.00
2023-05-16T03:09:54.494Z,4.00
2023-05-16T03:12:57.725Z,3.00
2023-05-16T03:16:03.182Z,4.00
2023-05-16T03:19:06.716Z,3.00
2023-05-16T03:22:10.189Z,3.80
2023-05-16T03:25:13.383Z,4.00
2023-05-16T03:28:19.041Z,3.00
2023-05-16T03:31:23.659Z,4.00
2023-05-16T03:34:27.023Z,4.00
2023-05-16T03:37:31.966Z,4.00
2023-05-16T03:40:35.703Z,4.00
2023-05-16T03:43:39.187Z,4.00
2023-05-16T03:46:43.844Z,4.00
2023-05-16T03:49:47.138Z,4.00
2023-05-16T03:52:50.911Z,4.00
2023-05-16T03:55:54.202Z,4.00
2023-05-16T03:58:58.422Z,4.00
2023-05-16T04:02:03.150Z,6.00
2023-05-16T04:05:07.992Z,5.25
2023-05-16T04:08:11.290Z,5.00
2023-05-16T04:11:14.593Z,3.50
2023-05-16T04:14:17.827Z,5.00
2023-05-16T04:17:22.487Z,3.00
2023-05-16T04:20:25.658Z,3.50
2023-05-16T04:23:29.041Z,4.40
2023-05-16T04:26:32.236Z,3.00
2023-05-16T04:29:35.549Z,3.20
2023-05-16T04:32:40.178Z,4.00
2023-05-16T04:35:43.515Z,5.00
2023-05-16T04:38:47.019Z,4.00
2023-05-16T04:41:50.189Z,6.00
2023-05-16T04:44:53.637Z,5.00
2023-05-16T04:47:59.046Z,5.00
2023-05-16T04:51:02.246Z,3.00
2023-05-16T04:54:05.857Z,6.00
2023-05-16T04:57:09.158Z,5.00
2023-05-16T05:00:13.922Z,4.00
2023-05-16T05:03:18.511Z,3.00
2023-05-16T05:06:21.867Z,5.00
2023-05-16T05:09:26.071Z,4.00
2023-05-16T05:12:29.467Z,4.60
2023-05-16T05:15:32.960Z,4.00
2023-05-16T05:18:37.699Z,3.00
2023-05-16T05:21:40.966Z,3.00
2023-05-16T05:24:44.189Z,3.00
2023-05-16T05:27:47.658Z,3.80
2023-05-16T05:30:50.912Z,4.00
2023-05-16T05:33:56.999Z,5.00
2023-05-16T05:37:00.288Z,5.00
2023-05-16T05:40:04.100Z,4.00
2023-05-16T05:43:08.225Z,4.00
2023-05-16T05:46:11.787Z,5.00
2023-05-16T05:49:16.798Z,4.20
2023-05-16T05:52:19.977Z,5.00
2023-05-16T05:55:23.218Z,3.80
2023-05-16T05:58:26.663Z,4.75
2023-05-16T06:01:30.068Z,4.00
2023-05-16T06:04:34.720Z,5.00
2023-05-16T06:07:37.976Z,5.25
2023-05-16T06:10:41.216Z,5.00
2023-05-16T06:13:44.459Z,6.00
2023-05-16T06:16:47.882Z,6.60
2023-05-16T06:19:52.712Z,5.00
2023-05-16T06:22:56.093Z,6.40
2023-05-16T06:25:59.307Z,6.00
2023-05-16T06:29:02.610Z,5.00
2023-05-16T06:32:06.241Z,4.75
2023-05-16T06:35:11.178Z,7.00
2023-05-16T06:38:14.668Z,6.00
2023-05-16T06:41:17.879Z,8.00
2023-05-16T06:44:21.514Z,6.00
2023-05-16T06:47:24.982Z,6.20
2023-05-16T06:50:29.800Z,9.00
2023-05-16T06:53:33.073Z,6.00
2023-05-16T06:56:36.393Z,8.00
2023-05-16T06:59:39.696Z,8.00
2023-05-16T07:02:43.413Z,6.40
2023-05-16T07:05:48.225Z,8.40
2023-05-16T07:08:51.562Z,7.00
2023-05-16T07:11:54.857Z,8.25
2023-05-16T07:14:58.153Z,8.00
2023-05-16T07:18:01.707Z,7.00
2023-05-16T07:21:06.760Z,7.00
2023-05-16T07:24:10.076Z,7.00
2023-05-16T07:27:13.384Z,9.00
2023-05-16T07:30:16.705Z,10.00
2023-05-16T07:33:19.981Z,8.00
2023-05-16T07:36:24.666Z,7.20
2023-05-16T07:39:27.919Z,7.60
2023-05-16T07:42:32.232Z,7.00
2023-05-16T07:45:35.559Z,8.50
2023-05-16T07:48:38.888Z,7.00
2023-05-16T07:51:43.591Z,7.00
2023-05-16T07:54:47.853Z,6.00
2023-05-16T07:57:51.823Z,8.00
2023-05-16T08:00:55.088Z,7.40
2023-05-16T08:03:58.483Z,8.00
2023-05-16T08:07:03.222Z,7.80
2023-05-16T08:10:07.554Z,6.00
2023-05-16T08:13:10.898Z,8.00
2023-05-16T08:16:14.290Z,7.00
2023-05-16T08:19:17.944Z,6.00
2023-05-16T08:22:22.685Z,7.80
2023-05-16T08:25:26.225Z,7.40
2023-05-16T08:28:29.811Z,6.00
2023-05-16T08:31:33.372Z,7.00
2023-05-16T08:34:37.083Z,8.40
2023-05-16T08:37:41.742Z,8.20
2023-05-16T08:40:45.455Z,7.00
2023-05-16T08:43:48.828Z,6.00
2023-05-16T08:46:54.007Z,8.00
2023-05-16T08:49:59.256Z,7.60
2023-05-16T08:53:07.671Z,8.00
2023-05-16T08:56:12.466Z,8.00
2023-05-16T08:59:16.151Z,9.00
2023-05-16T09:02:19.575Z,7.00
2023-05-16T09:05:24.247Z,7.60
2023-05-16T09:08:29.023Z,8.00
2023-05-16T09:11:32.301Z,8.00
2023-05-16T09:14:36.484Z,6.60
2023-05-16T09:17:44.466Z,8.20
2023-05-16T09:20:50.190Z,8.00
2023-05-16T09:23:55.417Z,6.00
2023-05-16T09:26:58.693Z,7.00
2023-05-16T09:30:03.102Z,6.00
2023-05-16T09:33:08.287Z,7.75
2023-05-16T09:36:11.968Z,6.40
2023-05-16T09:39:17.040Z,7.00
2023-05-16T09:42:21.684Z,8.00
2023-05-16T09:45:25.092Z,8.00
2023-05-16T09:48:28.931Z,7.40
2023-05-16T09:51:33.602Z,7.50
2023-05-16T09:54:38.296Z,6.00
2023-05-16T09:57:41.649Z,7.20
2023-05-16T10:00:45.655Z,7.00
2023-05-16T10:03:49.400Z,6.60
2023-05-16T10:06:53.986Z,7.20
2023-05-16T10:09:59.228Z,7.00
2023-05-16T10:13:06.664Z,7.00
2023-05-16T10:16:13.605Z,7.00
2023-05-16T10:19:18.301Z,8.75
2023-05-16T10:22:23.644Z,8.75
2023-05-16T10:25:33.371Z,7.80
2023-05-16T10:28:37.530Z,9.00
2023-05-16T10:31:41.366Z,8.00
2023-05-16T10:34:45.409Z,7.00
2023-05-16T10:37:50.155Z,8.00
2023-05-16T10:40:56.268Z,7.25
2023-05-16T10:44:00.592Z,8.00
2023-05-16T10:47:05.588Z,8.00
2023-05-16T10:50:09.454Z,7.00
2023-05-16T10:53:18.969Z,6.00
2023-05-16T10:56:26.111Z,9.00
2023-05-16T10:59:29.352Z,9.40
2023-05-16T11:06:24.852Z,11.00
2023-05-16T11:09:28.715Z,10.25
2023-05-16T11:12:43.858Z,11.00
2023-05-16T11:15:47.531Z,9.00
2023-05-16T11:18:52.418Z,10.50
2023-05-16T11:22:15.668Z,11.00
2023-05-16T11:25:39.383Z,9.00
2023-05-16T11:28:44.153Z,10.00
2023-05-16T11:31:47.567Z,8.20
2023-05-16T11:34:52.051Z,10.60
2023-05-16T11:37:55.686Z,8.00
2023-05-16T11:41:04.236Z,8.50
2023-05-16T11:44:08.965Z,7.00
2023-05-16T11:47:12.742Z,10.40
2023-05-16T11:50:17.899Z,9.00
2023-05-16T11:53:22.318Z,10.40
2023-05-16T11:56:26.727Z,7.25
2023-05-16T11:59:31.481Z,8.60
2023-05-16T12:02:35.012Z,7.50
2023-05-16T12:05:38.427Z,8.00
2023-05-16T12:08:51.561Z,9.40
2023-05-16T12:11:54.941Z,8.20
2023-05-16T12:14:59.858Z,9.00
2023-05-16T12:18:03.652Z,7.80
2023-05-16T12:21:07.330Z,11.00
2023-05-16T12:24:12.075Z,9.00
2023-05-16T12:27:23.898Z,11.40
2023-05-16T12:30:30.080Z,10.00
2023-05-16T12:33:38.818Z,9.00
2023-05-16T12:36:42.668Z,10.00
2023-05-16T12:39:47.673Z,9.80
2023-05-16T12:42:52.361Z,9.00
2023-05-16T12:45:58.594Z,9.60
2023-05-16T12:49:05.107Z,10.00
2023-05-16T12:52:18.635Z,11.00
2023-05-16T12:55:23.746Z,9.25
2023-05-16T12:58:27.688Z,9.60
2023-05-16T13:01:32.765Z,9.00
2023-05-16T13:04:37.777Z,8.75
2023-05-16T13:07:41.220Z,10.00
2023-05-16T13:10:44.670Z,9.00
2023-05-16T13:13:47.995Z,11.00
2023-05-16T13:16:53.352Z,9.00
2023-05-16T13:19:56.609Z,11.00
2023-05-16T13:22:59.976Z,10.00
2023-05-16T13:26:03.920Z,10.00
2023-05-16T13:29:09.777Z,9.40
2023-05-16T13:32:14.550Z,10.00
2023-05-16T13:35:18.063Z,10.00
2023-05-16T13:38:21.320Z,12.00
2023-05-16T13:41:24.762Z,10.00
2023-05-16T13:44:28.093Z,10.00
2023-05-16T13:47:32.887Z,11.00
2023-05-16T13:50:36.463Z,15.00
2023-05-16T13:53:46.853Z,10.00
2023-05-16T13:56:50.675Z,9.60
2023-05-16T14:00:11.389Z,11.20
2023-05-16T14:03:18.836Z,11.00
2023-05-16T14:06:22.241Z,11.20
2023-05-16T14:09:25.589Z,13.50
2023-05-16T14:12:28.927Z,12.00
2023-05-16T14:15:32.204Z,10.50
2023-05-16T14:18:37.367Z,11.00
2023-05-16T14:21:41.405Z,11.00
2023-05-16T14:24:45.138Z,9.00
2023-05-16T14:27:51.545Z,8.50
2023-05-16T14:30:55.282Z,9.60
2023-05-16T14:34:00.133Z,9.00
2023-05-16T14:37:03.557Z,9.00
2023-05-16T14:40:09.648Z,10.20
2023-05-16T14:43:12.988Z,10.50
2023-05-16T14:46:17.281Z,9.50
2023-05-16T14:49:21.988Z,7.00
2023-05-16T14:52:25.265Z,9.40
2023-05-16T14:55:28.956Z,8.40
2023-05-16T14:58:32.651Z,9.00
2023-05-16T15:01:36.091Z,11.00
2023-05-16T15:04:41.330Z,10.00
2023-05-16T15:07:45.290Z,12.00
2023-05-16T15:10:48.562Z,10.20
2023-05-16T15:13:51.950Z,10.00
2023-05-16T15:16:55.207Z,10.00
2023-05-16T15:19:59.884Z,10.00
2023-05-16T15:23:03.105Z,13.00
2023-05-16T15:26:06.618Z,13.50
2023-05-16T15:29:10.144Z,10.25
2023-05-16T15:32:14.017Z,11.80
2023-05-16T15:35:18.877Z,11.00
2023-05-16T15:38:22.203Z,9.60
2023-05-16T15:41:46.431Z,12.00
2023-05-16T15:44:49.967Z,10.00
2023-05-16T15:47:53.374Z,10.00
2023-05-16T15:50:58.163Z,8.00
2023-05-16T15:54:01.489Z,6.25
2023-05-16T15:57:05.019Z,7.20
2023-05-16T16:00:09.729Z,9.50
2023-05-16T16:03:17.347Z,8.00
2023-05-16T16:06:22.117Z,7.80
2023-05-16T16:09:25.451Z,7.00
2023-05-16T16:12:31.260Z,9.60
2023-05-16T16:15:36.437Z,7.00
2023-05-16T16:18:39.992Z,9.00
2023-05-16T16:21:44.713Z,9.00
2023-05-16T16:24:47.980Z,9.00
2023-05-16T16:27:51.678Z,8.20
2023-05-16T16:30:55.306Z,7.00
2023-05-16T16:33:58.617Z,9.40
2023-05-16T16:37:04.203Z,7.00
2023-05-16T16:40:10.086Z,8.00
2023-05-16T16:43:13.394Z,9.00
2023-05-16T16:46:16.847Z,7.00
2023-05-16T16:49:20.223Z,9.00
2023-05-16T16:52:24.932Z,7.00
2023-05-16T16:55:28.542Z,8.00
2023-05-16T16:58:32.084Z,9.00
2023-05-16T17:01:35.763Z,8.00
2023-05-16T17:04:39.154Z,9.00
2023-05-16T17:07:44.348Z,9.60
2023-05-16T17:10:47.799Z,7.00
2023-05-16T17:13:51.885Z,9.60
2023-05-16T17:16:55.549Z,10.00
2023-05-16T17:19:58.956Z,8.80
2023-05-16T17:23:03.893Z,8.00
2023-05-16T17:26:07.208Z,10.60
2023-05-16T17:29:10.870Z,10.60
2023-05-16T17:32:14.109Z,10.00
2023-05-16T17:35:18.312Z,10.00
2023-05-16T17:38:23.007Z,9.00
2023-05-16T17:41:26.292Z,9.00
2023-05-16T17:44:29.611Z,8.00
2023-05-16T17:47:33.175Z,8.00
2023-05-16T17:50:37.432Z,8.00
2023-05-16T17:53:42.175Z,9.75
2023-05-16T17:56:45.785Z,9.00
2023-05-16T17:59:49.119Z,7.20
2023-05-16T18:02:53.390Z,8.00
2023-05-16T18:05:57.165Z,11.40
2023-05-16T18:09:05.239Z,9.00
2023-05-16T18:12:09.493Z,8.20
2023-05-16T18:15:18.753Z,8.00
2023-05-16T18:18:27.490Z,9.00
2023-05-16T18:21:31.003Z,9.00
2023-05-16T18:24:36.158Z,7.00
2023-05-16T18:27:39.829Z,8.75
2023-05-16T18:30:43.227Z,10.40
2023-05-16T18:33:46.726Z,9.00
2023-05-16T18:36:50.025Z,11.00
2023-05-16T18:39:54.734Z,9.00
2023-05-16T18:42:58.788Z,9.40
2023-05-16T18:46:02.340Z,10.60
2023-05-16T18:49:05.864Z,10.20
2023-05-16T18:52:10.211Z,12.40
2023-05-16T18:55:15.010Z,14.50
2023-05-16T18:58:19.056Z,13.50
2023-05-16T19:01:22.646Z,13.60
2023-05-16T19:04:26.556Z,12.00
2023-05-16T19:07:29.963Z,13.00
2023-05-16T19:10:38.607Z,13.80
2023-05-16T19:13:41.922Z,14.00
2023-05-16T19:16:45.159Z,13.50
2023-05-16T19:19:48.659Z,14.00
2023-05-16T19:22:51.910Z,13.40
2023-05-16T19:25:56.598Z,12.00
2023-05-16T19:29:00.390Z,13.60
2023-05-16T19:32:05.806Z,10.20
2023-05-16T19:35:10.987Z,13.00
2023-05-16T19:38:14.388Z,11.60
2023-05-16T19:41:19.058Z,12.80
2023-05-16T19:44:22.379Z,12.40
2023-05-16T19:47:26.573Z,12.40
2023-05-16T19:50:30.152Z,12.00
2023-05-16T19:53:33.768Z,14.00
2023-05-16T19:56:38.417Z,11.67
2023-05-16T19:59:41.852Z,12.00
2023-05-16T20:02:45.254Z,12.50
2023-05-16T20:05:48.894Z,13.00
2023-05-16T20:08:52.107Z,13.60
2023-05-16T20:11:57.489Z,14.60
2023-05-16T20:15:00.878Z,14.00
2023-05-16T20:18:04.350Z,15.40
2023-05-16T20:21:07.654Z,12.60
2023-05-16T20:24:11.028Z,12.60
2023-05-16T20:27:15.735Z,12.00
2023-05-16T20:30:19.046Z,13.00
2023-05-16T20:33:22.384Z,10.60
2023-05-16T20:36:26.321Z,11.20
2023-05-16T20:39:30.791Z,11.00
2023-05-16T20:42:36.277Z,12.00
2023-05-16T20:45:39.648Z,10.75
2023-05-16T20:48:43.011Z,12.00
2023-05-16T20:51:46.335Z,11.00
2023-05-16T20:54:49.791Z,12.67
2023-05-16T20:57:54.476Z,13.60
2023-05-16T21:00:57.744Z,14.40
2023-05-16T21:04:01.774Z,13.40
2023-05-16T21:07:08.207Z,10.80
2023-05-16T21:10:13.170Z,14.50
2023-05-16T21:13:17.891Z,13.00
2023-05-16T21:16:21.135Z,12.00
2023-05-16T21:19:24.547Z,12.60
2023-05-16T21:22:27.848Z,13.60
2023-05-16T21:25:31.152Z,10.60
2023-05-16T21:28:42.592Z,11.50
2023-05-16T21:31:54.644Z,15.00
2023-05-16T21:34:58.986Z,12.40
2023-05-16T21:38:02.797Z,10.00
2023-05-16T21:41:06.348Z,10.50
2023-05-16T21:44:13.565Z,11.00
2023-05-16T21:47:16.824Z,10.50
2023-05-16T21:50:20.215Z,10.00
2023-05-16T21:53:24.682Z,9.00
2023-05-16T21:56:28.132Z,10.50
2023-05-16T21:59:32.748Z,11.00
2023-05-16T22:02:36.482Z,11.00
2023-05-16T22:05:39.846Z,12.40
2023-05-16T22:08:43.453Z,10.20
2023-05-16T22:11:46.650Z,11.00
2023-05-16T22:14:51.403Z,12.00
2023-05-16T22:17:54.695Z,9.00
2023-05-16T22:20:57.968Z,10.00
2023-05-16T22:24:01.228Z,10.00
2023-05-16T22:27:04.613Z,9.40
2023-05-16T22:30:10.439Z,9.40
2023-05-16T22:33:13.854Z,10.20
2023-05-16T22:36:17.236Z,10.00
2023-05-16T22:39:20.831Z,11.00
2023-05-16T22:42:24.143Z,10.00
2023-05-16T22:45:29.107Z,10.00
2023-05-16T22:48:33.221Z,9.00
2023-05-16T22:51:36.577Z,9.80
2023-05-16T22:54:41.650Z,11.40
2023-05-16T22:57:45.601Z,9.20
2023-05-16T23:00:50.309Z,9.50
2023-05-16T23:03:53.997Z,9.60
2023-05-16T23:06:57.315Z,11.00
2023-05-16T23:10:00.977Z,10.00
2023-05-16T23:13:04.231Z,11.00
2023-05-16T23:16:09.018Z,11.00
2023-05-16T23:19:12.290Z,10.80
2023-05-16T23:22:15.804Z,11.40
2023-05-16T23:25:19.190Z,10.60
2023-05-16T23:28:22.733Z,8.50
2023-05-16T23:31:27.432Z,11.00
2023-05-16T23:34:30.742Z,9.50
2023-05-16T23:37:34.139Z,12.00
2023-05-16T23:40:37.630Z,8.80
2023-05-16T23:43:40.900Z,9.00
2023-05-16T23:46:45.654Z,10.40
2023-05-16T23:49:48.916Z,8.00
2023-05-16T23:52:52.562Z,11.67
2023-05-16T23:55:56.289Z,10.60
2023-05-16T23:58:59.612Z,9.00
